createdAt,value
2023-02-26T00:01:46.422Z,97478.66
2023-02-26T00:04:12.685Z,97485.31
2023-02-26T00:06:39.082Z,97478.38
2023-02-26T00:09:05.560Z,97487.44
2023-02-26T00:11:31.924Z,97487.69
2023-02-26T00:13:58.397Z,97482.84
2023-02-26T00:16:24.989Z,97496.72
2023-02-26T00:18:51.388Z,97500.16
2023-02-26T00:21:17.699Z,97493.97
2023-02-26T00:23:44.147Z,97507.53
2023-02-26T00:26:10.591Z,97506.88
2023-02-26T00:28:37.030Z,97510.81
2023-02-26T00:31:03.515Z,97514.72
2023-02-26T00:33:29.897Z,97513.56
2023-02-26T00:35:56.339Z,97519.56
2023-02-26T00:38:22.757Z,97530.38
2023-02-26T00:40:52.039Z,97523.81
2023-02-26T00:43:18.587Z,97528.19
2023-02-26T00:45:45.140Z,97528.00
2023-02-26T00:48:11.476Z,97527.59
2023-02-26T00:50:37.814Z,97536.78
2023-02-26T00:53:04.259Z,97533.94
2023-02-26T00:55:30.622Z,97534.31
2023-02-26T00:57:56.981Z,97546.66
2023-02-26T01:00:25.746Z,97549.66
2023-02-26T01:02:52.169Z,97547.34
2023-02-26T01:05:18.699Z,97555.97
2023-02-26T01:07:45.080Z,97550.75
2023-02-26T01:10:11.425Z,97555.88
2023-02-26T01:12:37.705Z,97557.56
2023-02-26T01:15:04.026Z,97561.94
2023-02-26T01:17:30.309Z,97562.00
2023-02-26T01:19:57.007Z,97561.78
2023-02-26T01:22:23.439Z,97563.69
2023-02-26T01:24:49.760Z,97566.16
2023-02-26T01:27:16.196Z,97572.31
2023-02-26T01:29:42.551Z,97569.47
2023-02-26T01:32:09.044Z,97569.81
2023-02-26T01:34:35.480Z,97572.06
2023-02-26T01:37:01.837Z,97568.13
2023-02-26T01:39:31.232Z,97567.69
2023-02-26T01:41:57.521Z,97574.19
2023-02-26T01:44:23.820Z,97583.31
2023-02-26T01:46:50.256Z,97578.91
2023-02-26T01:49:16.743Z,97589.41
2023-02-26T01:51:43.084Z,97586.06
2023-02-26T01:54:09.881Z,97583.28
2023-02-26T01:56:36.162Z,97592.19
2023-02-26T01:59:02.555Z,97588.84
2023-02-26T02:01:29.167Z,97593.44
2023-02-26T02:03:55.476Z,97594.34
2023-02-26T02:06:21.847Z,97596.31
2023-02-26T02:08:48.356Z,97596.19
2023-02-26T02:11:14.857Z,97602.41
2023-02-26T02:13:41.354Z,97598.00
2023-02-26T02:16:07.874Z,97598.09
2023-02-26T02:18:34.255Z,97599.00
2023-02-26T02:21:00.542Z,97606.00
2023-02-26T02:23:26.721Z,97603.25
2023-02-26T02:25:53.018Z,97606.81
2023-02-26T02:28:19.310Z,97603.78
2023-02-26T02:30:45.688Z,97607.34
2023-02-26T02:33:12.076Z,97610.91
2023-02-26T02:35:38.345Z,97615.22
2023-02-26T02:38:04.692Z,97621.16
2023-02-26T02:40:31.149Z,97617.38
2023-02-26T02:42:57.474Z,97621.72
2023-02-26T02:45:24.453Z,97628.47
2023-02-26T02:47:50.963Z,97621.22
2023-02-26T02:50:17.904Z,97627.97
2023-02-26T02:52:44.408Z,97624.97
2023-02-26T02:55:10.723Z,97636.44
2023-02-26T02:57:37.113Z,97641.56
2023-02-26T03:00:03.450Z,97650.78
2023-02-26T03:02:29.799Z,97640.84
2023-02-26T03:04:56.161Z,97650.28
2023-02-26T03:07:22.615Z,97650.13
2023-02-26T03:09:48.942Z,97655.03
2023-02-26T03:12:15.405Z,97662.63
2023-02-26T03:14:41.715Z,97667.75
2023-02-26T03:17:08.498Z,97669.22
2023-02-26T03:19:34.901Z,97676.78
2023-02-26T03:22:01.373Z,97672.94
2023-02-26T03:24:27.664Z,97677.03
2023-02-26T03:26:54.308Z,97679.31
2023-02-26T03:29:20.637Z,97686.88
2023-02-26T03:31:47.083Z,97678.75
2023-02-26T03:34:13.508Z,97692.66
2023-02-26T03:36:40.705Z,97691.47
2023-02-26T03:39:06.981Z,97699.84
2023-02-26T03:41:34.202Z,97704.97
2023-02-26T03:44:00.698Z,97719.63
2023-02-26T03:46:27.743Z,97722.94
2023-02-26T03:48:54.289Z,97717.22
2023-02-26T03:51:20.733Z,97715.00
2023-02-26T03:53:47.108Z,97723.34
2023-02-26T03:56:13.492Z,97722.97
2023-02-26T03:58:40.032Z,97732.94
2023-02-26T04:01:06.544Z,97736.00
2023-02-26T04:03:32.956Z,97738.28
2023-02-26T04:05:59.179Z,97744.00
2023-02-26T04:08:25.385Z,97741.97
2023-02-26T04:10:51.764Z,97745.84
2023-02-26T04:13:18.295Z,97746.28
2023-02-26T04:15:45.228Z,97750.16
2023-02-26T04:18:11.414Z,97753.22
2023-02-26T04:20:37.714Z,97746.50
2023-02-26T04:23:03.854Z,97745.31
2023-02-26T04:25:30.061Z,97747.56
2023-02-26T04:27:56.325Z,97746.16
2023-02-26T04:30:23.310Z,97743.94
2023-02-26T04:32:49.535Z,97752.47
2023-02-26T04:35:16.258Z,97758.38
2023-02-26T04:37:42.528Z,97766.75
2023-02-26T04:40:08.914Z,97766.13
2023-02-26T04:42:35.559Z,97781.38
2023-02-26T04:45:01.861Z,97788.69
2023-02-26T04:47:28.355Z,97796.44
2023-02-26T04:49:54.845Z,97794.44
2023-02-26T04:52:21.154Z,97793.19
2023-02-26T04:54:47.629Z,97804.19
2023-02-26T04:57:13.885Z,97796.88
2023-02-26T04:59:40.170Z,97803.59
2023-02-26T05:02:08.134Z,97799.53
2023-02-26T05:04:34.530Z,97807.88
2023-02-26T05:07:00.865Z,97799.31
2023-02-26T05:09:28.115Z,97815.59
2023-02-26T05:11:54.414Z,97810.69
2023-02-26T05:14:20.911Z,97817.00
2023-02-26T05:16:47.189Z,97819.25
2023-02-26T05:19:13.569Z,97829.41
2023-02-26T05:21:40.002Z,97827.97
2023-02-26T05:24:06.789Z,97831.00
2023-02-26T05:26:32.967Z,97831.22
2023-02-26T05:28:59.186Z,97843.81
2023-02-26T05:31:25.622Z,97836.28
2023-02-26T05:33:51.988Z,97842.78
2023-02-26T05:36:18.357Z,97843.16
2023-02-26T05:38:44.930Z,97847.00
2023-02-26T05:41:11.333Z,97849.06
2023-02-26T05:43:37.772Z,97858.16
2023-02-26T05:46:04.144Z,97854.91
2023-02-26T05:48:30.752Z,97857.97
2023-02-26T05:50:57.135Z,97862.63
2023-02-26T05:53:23.471Z,97864.66
2023-02-26T05:55:49.810Z,97858.97
2023-02-26T05:58:16.273Z,97872.34
2023-02-26T06:00:42.574Z,97869.09
2023-02-26T06:03:09.046Z,97873.75
2023-02-26T06:05:35.440Z,97874.97
2023-02-26T06:08:01.939Z,97877.00
2023-02-26T06:10:28.411Z,97884.28
2023-02-26T06:12:58.024Z,97893.44
2023-02-26T06:15:24.339Z,97901.53
2023-02-26T06:17:50.961Z,97906.22
2023-02-26T06:20:17.357Z,97916.13
2023-02-26T06:22:43.681Z,97923.22
2023-02-26T06:25:10.256Z,97927.69
2023-02-26T06:27:36.566Z,97923.63
2023-02-26T06:30:02.841Z,97931.75
2023-02-26T06:32:30.773Z,97940.66
2023-02-26T06:34:57.228Z,97947.78
2023-02-26T06:37:23.612Z,97951.41
2023-02-26T06:39:49.974Z,97955.06
2023-02-26T06:42:18.443Z,97952.63
2023-02-26T06:44:46.085Z,97965.97
2023-02-26T06:47:12.400Z,97973.28
2023-02-26T06:49:38.798Z,97981.38
2023-02-26T06:52:05.102Z,97979.97
2023-02-26T06:54:31.429Z,97986.41
2023-02-26T06:56:57.731Z,97997.16
2023-02-26T06:59:23.995Z,98001.03
2023-02-26T07:01:50.487Z,98000.19
2023-02-26T07:04:17.406Z,98005.88
2023-02-26T07:06:44.931Z,98008.66
2023-02-26T07:09:11.307Z,98009.69
2023-02-26T07:11:37.715Z,98021.25
2023-02-26T07:14:04.107Z,98014.53
2023-02-26T07:16:30.472Z,98025.91
2023-02-26T07:18:56.859Z,98028.72
2023-02-26T07:21:23.182Z,98024.25
2023-02-26T07:23:49.551Z,98034.81
2023-02-26T07:26:15.979Z,98032.97
2023-02-26T07:28:42.356Z,98037.25
2023-02-26T07:31:08.846Z,98038.06
2023-02-26T07:33:35.269Z,98036.06
2023-02-26T07:36:01.615Z,98044.78
2023-02-26T07:38:29.956Z,98048.03
2023-02-26T07:40:56.364Z,98051.88
2023-02-26T07:43:22.660Z,98052.25
2023-02-26T07:45:49.046Z,98048.81
2023-02-26T07:48:17.613Z,98053.06
2023-02-26T07:50:44.138Z,98059.97
2023-02-26T07:53:10.459Z,98066.25
2023-02-26T07:55:36.991Z,98075.16
2023-02-26T07:58:03.629Z,98073.56
2023-02-26T08:00:30.245Z,98083.06
2023-02-26T08:02:57.052Z,98074.97
2023-02-26T08:05:23.408Z,98082.50
2023-02-26T08:07:49.717Z,98084.56
2023-02-26T08:10:16.004Z,98096.97
2023-02-26T08:12:42.269Z,98101.09
2023-02-26T08:15:08.608Z,98100.56
2023-02-26T08:17:34.906Z,98096.53
2023-02-26T08:20:01.296Z,98104.88
2023-02-26T08:22:27.661Z,98111.19
2023-02-26T08:24:54.156Z,98109.03
2023-02-26T08:27:20.449Z,98115.66
2023-02-26T08:29:46.838Z,98112.53
2023-02-26T08:32:13.341Z,98108.78
2023-02-26T08:34:39.862Z,98122.47
2023-02-26T08:37:06.126Z,98119.44
2023-02-26T08:39:32.330Z,98126.56
2023-02-26T08:41:58.611Z,98124.50
2023-02-26T08:44:24.859Z,98128.53
2023-02-26T08:46:51.176Z,98131.28
2023-02-26T08:49:17.464Z,98133.41
2023-02-26T08:51:43.794Z,98129.84
2023-02-26T08:54:10.072Z,98137.22
2023-02-26T08:56:36.288Z,98137.03
2023-02-26T08:59:02.581Z,98141.28
2023-02-26T09:01:29.286Z,98144.13
2023-02-26T09:03:55.654Z,98152.63
2023-02-26T09:06:22.156Z,98150.41
2023-02-26T09:08:48.439Z,98153.44
2023-02-26T09:11:14.689Z,98166.44
2023-02-26T09:13:40.980Z,98163.06
2023-02-26T09:16:07.286Z,98168.16
2023-02-26T09:18:33.586Z,98168.34
2023-02-26T09:21:00.012Z,98175.31
2023-02-26T09:23:26.256Z,98178.56
2023-02-26T09:25:52.998Z,98192.56
2023-02-26T09:28:19.302Z,98196.84
2023-02-26T09:30:45.581Z,98216.06
2023-02-26T09:33:11.888Z,98216.66
2023-02-26T09:35:38.218Z,98220.31
2023-02-26T09:38:04.485Z,98225.63
2023-02-26T09:40:30.783Z,98225.19
2023-02-26T09:42:57.041Z,98221.53
2023-02-26T09:45:23.331Z,98225.56
2023-02-26T09:47:49.672Z,98226.16
2023-02-26T09:50:15.989Z,98226.75
2023-02-26T09:52:42.262Z,98234.50
2023-02-26T09:55:08.567Z,98242.06
2023-02-26T09:57:34.836Z,98248.94
2023-02-26T10:00:01.207Z,98246.25
2023-02-26T10:02:27.566Z,98245.25
2023-02-26T10:04:53.854Z,98242.97
2023-02-26T10:07:20.144Z,98250.72
2023-02-26T10:09:46.521Z,98253.97
2023-02-26T10:12:13.833Z,98255.13
2023-02-26T10:14:40.096Z,98262.69
2023-02-26T10:17:06.452Z,98265.72
2023-02-26T10:19:32.697Z,98255.66
2023-02-26T10:21:58.976Z,98269.72
2023-02-26T10:24:25.223Z,98273.50
2023-02-26T10:26:51.531Z,98274.53
2023-02-26T10:29:17.779Z,98269.78
2023-02-26T10:31:44.186Z,98275.72
2023-02-26T10:34:10.674Z,98280.56
2023-02-26T10:36:36.966Z,98281.53
2023-02-26T10:39:03.314Z,98285.59
2023-02-26T10:41:29.809Z,98284.56
2023-02-26T10:43:56.152Z,98291.75
2023-02-26T10:46:22.464Z,98285.97
2023-02-26T10:48:48.777Z,98287.44
2023-02-26T10:51:15.105Z,98293.84
2023-02-26T10:53:41.611Z,98299.44
2023-02-26T10:56:07.910Z,98292.19
2023-02-26T10:58:34.232Z,98299.97
2023-02-26T11:01:00.589Z,98299.88
2023-02-26T11:03:26.986Z,98308.25
2023-02-26T11:05:53.297Z,98311.06
2023-02-26T11:08:19.584Z,98305.44
2023-02-26T11:10:45.899Z,98309.72
2023-02-26T11:13:12.218Z,98318.59
2023-02-26T11:15:38.672Z,98311.91
2023-02-26T11:18:04.991Z,98308.09
2023-02-26T11:20:31.357Z,98319.69
2023-02-26T11:22:57.635Z,98319.38
2023-02-26T11:25:24.076Z,98313.91
2023-02-26T11:27:50.567Z,98307.44
2023-02-26T11:30:16.854Z,98306.06
2023-02-26T11:32:43.152Z,98312.09
2023-02-26T11:35:09.433Z,98312.41
2023-02-26T11:37:35.777Z,98319.47
2023-02-26T11:40:02.194Z,98320.66
2023-02-26T11:42:28.489Z,98320.78
2023-02-26T11:44:54.893Z,98328.31
2023-02-26T11:47:23.167Z,98326.34
2023-02-26T11:49:49.490Z,98322.16
2023-02-26T11:52:15.760Z,98316.69
2023-02-26T11:54:42.094Z,98324.69
2023-02-26T11:57:11.032Z,98328.66
2023-02-26T11:59:40.200Z,98326.34
2023-02-26T12:02:06.488Z,98318.94
2023-02-26T12:04:32.978Z,98313.94
2023-02-26T12:06:59.379Z,98316.13
2023-02-26T12:09:25.706Z,98314.63
2023-02-26T12:11:52.058Z,98316.38
2023-02-26T12:14:18.431Z,98311.97
2023-02-26T12:16:44.720Z,98312.91
2023-02-26T12:19:11.136Z,98301.19
2023-02-26T12:21:37.421Z,98308.25
2023-02-26T12:24:03.826Z,98307.78
2023-02-26T12:26:30.243Z,98301.66
2023-02-26T12:28:56.655Z,98310.09
2023-02-26T12:31:23.103Z,98302.69
2023-02-26T12:33:49.533Z,98305.25
2023-02-26T12:36:15.983Z,98312.66
2023-02-26T12:38:45.239Z,98310.09
2023-02-26T12:41:11.513Z,98315.78
2023-02-26T12:43:37.785Z,98308.72
2023-02-26T12:46:04.071Z,98311.13
2023-02-26T12:48:30.402Z,98308.72
2023-02-26T12:50:56.698Z,98312.31
2023-02-26T12:53:22.995Z,98313.00
2023-02-26T12:55:49.299Z,98316.97
2023-02-26T12:58:15.586Z,98324.84
2023-02-26T13:00:41.886Z,98327.13
2023-02-26T13:03:08.186Z,98324.03
2023-02-26T13:05:34.491Z,98326.34
2023-02-26T13:08:00.760Z,98321.03
2023-02-26T13:10:27.090Z,98326.00
2023-02-26T13:12:55.145Z,98328.66
2023-02-26T13:15:21.564Z,98316.81
2023-02-26T13:17:48.120Z,98325.50
2023-02-26T13:20:14.634Z,98331.66
2023-02-26T13:22:40.943Z,98334.34
2023-02-26T13:25:07.157Z,98337.13
2023-02-26T13:27:33.585Z,98332.38
2023-02-26T13:29:59.977Z,98330.28
2023-02-26T13:32:26.430Z,98335.41
2023-02-26T13:34:53.240Z,98334.81
2023-02-26T13:37:19.736Z,98337.97
2023-02-26T13:39:46.418Z,98342.13
2023-02-26T13:42:12.692Z,98339.09
2023-02-26T13:44:38.948Z,98345.25
2023-02-26T13:47:05.184Z,98346.53
2023-02-26T13:49:31.442Z,98346.53
2023-02-26T13:51:57.826Z,98347.59
2023-02-26T13:54:24.227Z,98347.34
2023-02-26T13:56:50.513Z,98349.19
2023-02-26T13:59:20.219Z,98343.63
2023-02-26T14:01:46.910Z,98337.69
2023-02-26T14:04:15.100Z,98335.50
2023-02-26T14:06:41.799Z,98334.91
2023-02-26T14:09:08.180Z,98338.28
2023-02-26T14:11:34.506Z,98346.41
2023-02-26T14:14:00.818Z,98342.34
2023-02-26T14:16:27.598Z,98339.31
2023-02-26T14:18:54.185Z,98344.66
2023-02-26T14:21:20.577Z,98339.31
2023-02-26T14:23:46.894Z,98336.78
2023-02-26T14:26:13.171Z,98349.16
2023-02-26T14:28:39.843Z,98349.97
2023-02-26T14:31:06.331Z,98344.66
2023-02-26T14:33:32.659Z,98344.06
2023-02-26T14:35:58.928Z,98345.69
2023-02-26T14:38:26.627Z,98342.41
2023-02-26T14:40:53.159Z,98345.31
2023-02-26T14:43:19.433Z,98349.28
2023-02-26T14:45:45.712Z,98341.50
2023-02-26T14:48:12.132Z,98346.03
2023-02-26T14:50:40.391Z,98345.19
2023-02-26T14:53:06.688Z,98346.84
2023-02-26T14:55:32.958Z,98346.59
2023-02-26T14:57:59.197Z,98353.56
2023-02-26T15:00:25.803Z,98349.03
2023-02-26T15:02:52.607Z,98349.88
2023-02-26T15:05:18.947Z,98348.81
2023-02-26T15:07:45.354Z,98353.91
2023-02-26T15:10:11.601Z,98354.13
2023-02-26T15:12:37.882Z,98364.81
2023-02-26T15:15:04.148Z,98353.56
2023-02-26T15:17:30.507Z,98354.59
2023-02-26T15:19:57.143Z,98352.16
2023-02-26T15:22:23.422Z,98355.03
2023-02-26T15:24:49.702Z,98356.91
2023-02-26T15:27:16.698Z,98355.50
2023-02-26T15:29:43.418Z,98358.41
2023-02-26T15:32:10.068Z,98356.78
2023-02-26T15:34:36.337Z,98358.63
2023-02-26T15:37:02.694Z,98365.81
2023-02-26T15:39:28.983Z,98373.56
2023-02-26T15:41:55.730Z,98375.22
2023-02-26T15:44:22.079Z,98372.31
2023-02-26T15:46:48.405Z,98371.25
2023-02-26T15:49:14.646Z,98378.25
2023-02-26T15:51:40.941Z,98378.25
2023-02-26T15:54:07.168Z,98380.09
2023-02-26T15:56:33.416Z,98385.41
2023-02-26T15:58:59.689Z,98381.13
2023-02-26T16:01:26.072Z,98386.66
2023-02-26T16:03:52.375Z,98378.13
2023-02-26T16:06:18.726Z,98379.38
2023-02-26T16:08:44.970Z,98382.28
2023-02-26T16:11:11.196Z,98385.16
2023-02-26T16:13:37.508Z,98388.25
2023-02-26T16:16:03.886Z,98390.38
2023-02-26T16:18:30.397Z,98392.44
2023-02-26T16:20:56.730Z,98393.91
2023-02-26T16:23:23.013Z,98393.31
2023-02-26T16:25:49.359Z,98393.78
2023-02-26T16:28:15.593Z,98398.53
2023-02-26T16:30:41.918Z,98394.47
2023-02-26T16:33:08.251Z,98388.75
2023-02-26T16:35:34.505Z,98399.59
2023-02-26T16:38:00.872Z,98400.91
2023-02-26T16:40:27.216Z,98398.69
2023-02-26T16:42:53.504Z,98404.22
2023-02-26T16:45:19.858Z,98403.66
2023-02-26T16:47:46.288Z,98407.56
2023-02-26T16:50:12.562Z,98402.69
2023-02-26T16:52:38.911Z,98412.75
2023-02-26T16:55:05.185Z,98421.19
2023-02-26T16:57:31.524Z,98410.78
2023-02-26T16:59:57.845Z,98416.28
2023-02-26T17:02:24.221Z,98427.16
2023-02-26T17:04:50.520Z,98418.41
2023-02-26T17:07:16.820Z,98428.44
2023-02-26T17:09:43.164Z,98430.53
2023-02-26T17:12:09.535Z,98430.97
2023-02-26T17:14:35.801Z,98426.66
2023-02-26T17:17:02.162Z,98437.78
2023-02-26T17:19:28.429Z,98440.66
2023-02-26T17:21:54.742Z,98444.56
2023-02-26T17:24:21.028Z,98446.41
2023-02-26T17:26:47.339Z,98452.78
2023-02-26T17:29:13.595Z,98457.06
2023-02-26T17:31:40.150Z,98456.03
2023-02-26T17:34:06.907Z,98467.28
2023-02-26T17:36:33.586Z,98463.34
2023-02-26T17:39:00.032Z,98469.88
2023-02-26T17:41:26.609Z,98471.28
2023-02-26T17:43:53.041Z,98476.31
2023-02-26T17:46:19.316Z,98466.53
2023-02-26T17:48:45.762Z,98473.13
2023-02-26T17:51:12.724Z,98479.09
2023-02-26T17:53:40.100Z,98478.13
2023-02-26T17:56:06.398Z,98489.00
2023-02-26T17:58:32.843Z,98491.22
2023-02-26T18:00:59.089Z,98485.72
2023-02-26T18:03:26.236Z,98490.59
2023-02-26T18:05:53.587Z,98487.75
2023-02-26T18:08:19.880Z,98494.41
2023-02-26T18:10:46.259Z,98497.31
2023-02-26T18:13:12.563Z,98497.78
2023-02-26T18:15:38.812Z,98503.81
2023-02-26T18:18:05.120Z,98503.94
2023-02-26T18:20:31.457Z,98508.34
2023-02-26T18:22:57.769Z,98499.41
2023-02-26T18:25:24.234Z,98507.53
2023-02-26T18:27:50.510Z,98505.53
2023-02-26T18:30:16.772Z,98509.97
2023-02-26T18:32:43.073Z,98507.41
2023-02-26T18:35:09.396Z,98504.84
2023-02-26T18:37:35.628Z,98507.63
2023-02-26T18:40:01.888Z,98511.81
2023-02-26T18:42:28.186Z,98507.16
2023-02-26T18:44:54.499Z,98505.41
2023-02-26T18:47:20.850Z,98520.50
2023-02-26T18:49:47.133Z,98516.88
2023-02-26T18:52:13.496Z,98523.94
2023-02-26T18:54:39.812Z,98524.63
2023-02-26T18:57:06.085Z,98523.09
2023-02-26T18:59:32.416Z,98532.03
2023-02-26T19:02:00.098Z,98528.66
2023-02-26T19:04:27.141Z,98535.16
2023-02-26T19:06:53.447Z,98533.16
2023-02-26T19:09:19.707Z,98544.53
2023-02-26T19:11:45.983Z,98540.88
2023-02-26T19:14:12.262Z,98543.69
2023-02-26T19:16:38.534Z,98554.25
2023-02-26T19:19:04.968Z,98550.03
2023-02-26T19:21:31.267Z,98558.38
2023-02-26T19:23:57.520Z,98559.53
2023-02-26T19:26:23.787Z,98551.84
2023-02-26T19:28:50.077Z,98548.66
2023-02-26T19:31:16.824Z,98551.13
2023-02-26T19:33:43.237Z,98558.69
2023-02-26T19:36:09.612Z,98557.59
2023-02-26T19:38:35.859Z,98557.38
2023-02-26T19:41:02.194Z,98558.19
2023-02-26T19:43:28.707Z,98557.69
2023-02-26T19:45:55.199Z,98565.25
2023-02-26T19:48:21.531Z,98568.50
2023-02-26T19:50:47.856Z,98562.09
2023-02-26T19:53:14.178Z,98566.97
2023-02-26T19:55:40.554Z,98569.97
2023-02-26T19:58:07.042Z,98571.81
2023-02-26T20:00:33.325Z,98567.03
2023-02-26T20:02:59.831Z,98574.63
2023-02-26T20:05:26.080Z,98587.53
2023-02-26T20:07:52.420Z,98595.31
2023-02-26T20:10:18.659Z,98590.53
2023-02-26T20:12:44.931Z,98590.03
2023-02-26T20:15:11.231Z,98597.81
2023-02-26T20:17:37.537Z,98594.69
2023-02-26T20:20:03.836Z,98604.31
2023-02-26T20:22:31.946Z,98600.91
2023-02-26T20:24:58.320Z,98605.22
2023-02-26T20:27:24.733Z,98613.59
2023-02-26T20:29:51.020Z,98600.81
2023-02-26T20:32:17.476Z,98609.38
2023-02-26T20:34:43.978Z,98614.28
2023-02-26T20:37:10.315Z,98612.72
2023-02-26T20:39:36.644Z,98617.03
2023-02-26T20:42:03.020Z,98624.81
2023-02-26T20:44:29.350Z,98625.91
2023-02-26T20:46:55.800Z,98620.75
2023-02-26T20:49:22.147Z,98619.63
2023-02-26T20:51:48.460Z,98621.16
2023-02-26T20:54:14.753Z,98618.97
2023-02-26T20:56:41.140Z,98621.06
2023-02-26T20:59:07.416Z,98617.22
2023-02-26T21:01:33.668Z,98616.66
2023-02-26T21:03:59.928Z,98624.16
2023-02-26T21:06:26.632Z,98620.31
2023-02-26T21:08:52.926Z,98623.69
2023-02-26T21:11:19.363Z,98627.13
2023-02-26T21:13:45.711Z,98628.66
2023-02-26T21:16:12.084Z,98619.69
2023-02-26T21:18:38.344Z,98626.38
2023-02-26T21:21:04.665Z,98629.28
2023-02-26T21:23:31.103Z,98630.56
2023-02-26T21:25:57.501Z,98628.38
2023-02-26T21:28:23.789Z,98631.88
2023-02-26T21:30:50.129Z,98637.47
2023-02-26T21:33:16.437Z,98636.41
2023-02-26T21:35:42.969Z,98639.66
2023-02-26T21:38:09.328Z,98633.81
2023-02-26T21:40:35.651Z,98637.31
2023-02-26T21:43:01.940Z,98636.25
2023-02-26T21:45:28.276Z,98639.50
2023-02-26T21:47:54.614Z,98645.69
2023-02-26T21:50:20.932Z,98643.00
2023-02-26T21:52:47.227Z,98631.47
2023-02-26T21:55:13.511Z,98639.28
2023-02-26T21:57:40.048Z,98632.06
2023-02-26T22:00:06.464Z,98634.50
2023-02-26T22:02:32.825Z,98631.56
2023-02-26T22:04:59.219Z,98630.75
2023-02-26T22:07:25.472Z,98633.22
2023-02-26T22:09:51.878Z,98620.44
2023-02-26T22:12:18.359Z,98636.09
2023-02-26T22:14:44.637Z,98634.50
2023-02-26T22:17:10.983Z,98638.00
2023-02-26T22:19:37.322Z,98634.25
2023-02-26T22:22:03.575Z,98635.66
2023-02-26T22:24:30.093Z,98638.09
2023-02-26T22:26:56.535Z,98644.81
2023-02-26T22:29:22.871Z,98645.38
2023-02-26T22:31:49.334Z,98644.59
2023-02-26T22:34:15.736Z,98643.28
2023-02-26T22:36:42.079Z,98654.31
2023-02-26T22:39:08.431Z,98657.59
2023-02-26T22:41:35.539Z,98652.22
2023-02-26T22:44:02.136Z,98655.97
2023-02-26T22:46:28.629Z,98666.44
2023-02-26T22:48:55.046Z,98654.09
2023-02-26T22:51:21.339Z,98658.41
2023-02-26T22:53:47.769Z,98659.44
2023-02-26T22:56:14.104Z,98663.75
2023-02-26T22:58:40.432Z,98655.72
2023-02-26T23:01:06.879Z,98662.13
2023-02-26T23:03:33.241Z,98658.06
2023-02-26T23:06:02.798Z,98665.88
2023-02-26T23:08:29.158Z,98662.13
2023-02-26T23:10:55.521Z,98665.38
2023-02-26T23:13:21.843Z,98662.53
2023-02-26T23:15:48.261Z,98667.97
2023-02-26T23:18:14.644Z,98665.53
2023-02-26T23:20:40.962Z,98666.03
2023-02-26T23:23:07.402Z,98666.69
2023-02-26T23:25:33.813Z,98663.63
2023-02-26T23:28:00.222Z,98656.25
2023-02-26T23:30:26.529Z,98659.34
2023-02-26T23:32:52.918Z,98662.16
2023-02-26T23:35:19.288Z,98662.88
2023-02-26T23:37:46.852Z,98660.91
2023-02-26T23:40:13.135Z,98666.94
2023-02-26T23:42:39.513Z,98675.69
2023-02-26T23:45:05.904Z,98669.34
2023-02-26T23:47:32.290Z,98679.06
2023-02-26T23:49:58.591Z,98677.28
2023-02-26T23:52:24.952Z,98671.78
2023-02-26T23:54:51.295Z,98680.44
2023-02-26T23:57:17.653Z,98677.53
2023-02-26T23:59:43.988Z,98677.09
